createdAt,value
2022-12-05T00:01:35.175Z,100433.03
2022-12-05T00:04:09.660Z,100439.56
2022-12-05T00:06:37.373Z,100445.81
2022-12-05T00:09:05.517Z,100451.03
2022-12-05T00:11:34.956Z,100451.19
2022-12-05T00:14:04.674Z,100454.72
2022-12-05T00:16:35.790Z,100455.44
2022-12-05T00:19:06.392Z,100456.28
2022-12-05T00:21:35.639Z,100459.69
2022-12-05T00:24:03.802Z,100456.00
2022-12-05T00:26:31.325Z,100457.97
2022-12-05T00:28:58.450Z,100453.44
2022-12-05T00:31:26.589Z,100455.16
2022-12-05T00:33:54.070Z,100451.47
2022-12-05T00:36:23.357Z,100461.28
2022-12-05T00:38:50.384Z,100456.88
2022-12-05T00:41:19.888Z,100460.41
2022-12-05T00:43:46.597Z,100461.97
2022-12-05T00:46:16.177Z,100465.94
2022-12-05T00:48:42.967Z,100461.97
2022-12-05T00:51:12.979Z,100473.59
2022-12-05T00:53:40.061Z,100469.06
2022-12-05T00:56:10.276Z,100481.81
2022-12-05T00:58:37.223Z,100473.88
2022-12-05T01:01:17.006Z,100474.47
2022-12-05T01:03:44.643Z,100477.00
2022-12-05T01:06:12.321Z,100472.16
2022-12-05T01:08:39.200Z,100474.03
2022-12-05T01:11:07.679Z,100471.34
2022-12-05T01:13:34.610Z,100481.97
2022-12-05T01:16:01.902Z,100479.44
2022-12-05T01:18:29.406Z,100476.13
2022-12-05T01:20:56.243Z,100480.53
2022-12-05T01:23:22.947Z,100477.72
2022-12-05T01:25:51.306Z,100475.88
2022-12-05T01:28:18.295Z,100482.94
2022-12-05T01:30:47.648Z,100480.41
2022-12-05T01:33:14.431Z,100483.97
2022-12-05T01:35:41.789Z,100493.91
2022-12-05T01:38:10.142Z,100494.03
2022-12-05T01:40:37.017Z,100498.44
2022-12-05T01:43:06.272Z,100491.03
2022-12-05T01:45:39.307Z,100492.19
2022-12-05T01:48:11.940Z,100502.84
2022-12-05T01:50:41.180Z,100493.91
2022-12-05T01:53:07.861Z,100498.44
2022-12-05T01:55:36.102Z,100497.44
2022-12-05T01:58:05.342Z,100505.66
2022-12-05T02:00:32.446Z,100511.78
2022-12-05T02:03:02.487Z,100519.00
2022-12-05T02:05:31.514Z,100512.75
2022-12-05T02:07:59.567Z,100510.06
2022-12-05T02:10:28.264Z,100504.69
2022-12-05T02:12:55.038Z,100509.22
2022-12-05T02:15:37.213Z,100516.31
2022-12-05T02:18:25.791Z,100514.47
2022-12-05T02:21:05.165Z,100511.03
2022-12-05T02:23:31.536Z,100514.88
2022-12-05T02:26:25.891Z,100508.63
2022-12-05T02:29:13.082Z,100523.53
2022-12-05T02:31:53.338Z,100518.56
2022-12-05T02:34:37.683Z,100516.16
2022-12-05T02:37:14.770Z,100521.25
2022-12-05T02:39:57.828Z,100523.81
2022-12-05T02:42:32.851Z,100527.34
2022-12-05T02:45:11.549Z,100534.72
2022-12-05T02:47:44.070Z,100539.13
2022-12-05T02:50:16.144Z,100550.03
2022-12-05T02:52:45.640Z,100552.63
2022-12-05T02:55:14.359Z,100557.28
2022-12-05T02:57:45.543Z,100559.97
2022-12-05T03:00:12.541Z,100560.69
2022-12-05T03:02:39.814Z,100565.94
2022-12-05T03:05:16.044Z,100573.16
2022-12-05T03:07:46.714Z,100555.88
2022-12-05T03:10:15.427Z,100562.13
2022-12-05T03:12:52.039Z,100560.41
2022-12-05T03:15:24.577Z,100571.91
2022-12-05T03:17:59.895Z,100573.59
2022-12-05T03:20:34.475Z,100576.59
2022-12-05T03:23:11.732Z,100571.47
2022-12-05T03:25:52.284Z,100573.16
2022-12-05T03:28:40.904Z,100571.19
2022-12-05T03:31:11.205Z,100572.91
2022-12-05T03:33:44.352Z,100582.97
2022-12-05T03:36:28.527Z,100582.84
2022-12-05T03:39:08.907Z,100589.09
2022-12-05T03:41:42.959Z,100590.06
2022-12-05T03:44:22.103Z,100583.69
2022-12-05T03:47:14.870Z,100571.19
2022-12-05T03:49:49.368Z,100572.91
2022-12-05T03:52:29.382Z,100581.13
2022-12-05T03:55:01.081Z,100581.97
2022-12-05T03:57:32.987Z,100583.69
2022-12-05T04:00:10.662Z,100589.94
2022-12-05T04:02:50.055Z,100594.47
2022-12-05T04:05:21.797Z,100592.63
2022-12-05T04:08:12.707Z,100587.38
2022-12-05T04:10:50.275Z,100590.06
2022-12-05T04:13:40.533Z,100589.94
2022-12-05T04:16:43.458Z,100583.53
2022-12-05T04:19:09.781Z,100588.94
2022-12-05T04:21:43.663Z,100586.22
2022-12-05T04:24:50.765Z,100582.56
2022-12-05T04:27:31.196Z,100568.94
2022-12-05T04:30:08.946Z,100573.91
2022-12-05T04:32:39.612Z,100579.16
2022-12-05T04:35:14.154Z,100581.69
2022-12-05T04:37:44.546Z,100580.84
2022-12-05T04:40:35.766Z,100586.22
2022-12-05T04:43:04.155Z,100595.16
2022-12-05T04:45:32.518Z,100594.31
2022-12-05T04:48:04.850Z,100594.19
2022-12-05T04:50:33.380Z,100594.19
2022-12-05T04:53:01.830Z,100592.19
2022-12-05T04:55:31.576Z,100587.81
2022-12-05T04:57:57.994Z,100600.28
2022-12-05T05:00:28.280Z,100600.28
2022-12-05T05:03:00.996Z,100596.88
2022-12-05T05:05:28.709Z,100581.41
2022-12-05T05:07:55.571Z,100585.69
2022-12-05T05:10:37.949Z,100589.22
2022-12-05T05:13:06.791Z,100592.94
2022-12-05T05:15:33.134Z,100586.53
2022-12-05T05:17:59.518Z,100601.88
2022-12-05T05:20:27.168Z,100604.13
2022-12-05T05:22:56.202Z,100600.59
2022-12-05T05:25:23.722Z,100606.13
2022-12-05T05:27:55.823Z,100612.22
2022-12-05T05:30:24.800Z,100608.69
2022-12-05T05:32:51.548Z,100600.59
2022-12-05T05:35:18.183Z,100598.59
2022-12-05T05:37:44.706Z,100608.53
2022-12-05T05:40:13.274Z,100622.59
2022-12-05T05:42:44.813Z,100615.47
2022-12-05T05:45:12.577Z,100620.88
2022-12-05T05:47:39.256Z,100627.97
2022-12-05T05:50:10.051Z,100625.44
2022-12-05T05:52:38.177Z,100629.97
2022-12-05T05:55:06.010Z,100633.53
2022-12-05T05:57:32.632Z,100629.81
2022-12-05T06:00:02.050Z,100634.22
2022-12-05T06:02:33.321Z,100632.38
2022-12-05T06:04:59.932Z,100635.09
2022-12-05T06:07:26.635Z,100638.75
2022-12-05T06:09:53.155Z,100639.63
2022-12-05T06:12:19.615Z,100640.47
2022-12-05T06:14:51.694Z,100641.34
2022-12-05T06:17:18.361Z,100637.78
2022-12-05T06:19:44.868Z,100645.88
2022-12-05T06:22:13.539Z,100645.75
2022-12-05T06:24:39.910Z,100634.97
2022-12-05T06:27:06.524Z,100640.34
2022-12-05T06:29:37.421Z,100642.03
2022-12-05T06:32:04.194Z,100655.53
2022-12-05T06:34:35.708Z,100661.75
2022-12-05T06:37:02.312Z,100667.16
2022-12-05T06:39:30.943Z,100667.03
2022-12-05T06:41:57.663Z,100663.47
2022-12-05T06:44:26.909Z,100671.69
2022-12-05T06:46:54.242Z,100683.34
2022-12-05T06:49:24.056Z,100684.19
2022-12-05T06:51:54.637Z,100695.84
2022-12-05T06:54:21.044Z,100702.38
2022-12-05T06:56:47.571Z,100697.97
2022-12-05T06:59:13.989Z,100702.09
2022-12-05T07:01:43.150Z,100702.09
2022-12-05T07:04:15.697Z,100696.69
2022-12-05T07:06:51.026Z,100701.06
2022-12-05T07:09:22.739Z,100708.19
2022-12-05T07:11:50.501Z,100700.94
2022-12-05T07:14:46.554Z,100700.09
2022-12-05T07:17:09.524Z,100704.38
2022-12-05T07:19:36.278Z,100703.53
2022-12-05T07:22:03.030Z,100707.19
2022-12-05T07:24:29.552Z,100706.91
2022-12-05T07:26:55.949Z,100706.91
2022-12-05T07:29:24.504Z,100707.78
2022-12-05T07:31:50.998Z,100702.97
2022-12-05T07:34:17.564Z,100702.09
2022-12-05T07:36:43.912Z,100706.09
2022-12-05T07:39:12.690Z,100707.22
2022-12-05T07:41:39.301Z,100720.44
2022-12-05T07:44:10.756Z,100712.34
2022-12-05T07:46:40.623Z,100714.31
2022-12-05T07:49:10.036Z,100715.75
2022-12-05T07:51:36.573Z,100717.19
2022-12-05T07:54:03.182Z,100716.91
2022-12-05T07:56:29.648Z,100731.13
2022-12-05T07:58:56.203Z,100733.38
2022-12-05T08:01:27.708Z,100735.09
2022-12-05T08:03:56.214Z,100738.09
2022-12-05T08:06:25.294Z,100741.53
2022-12-05T08:08:53.155Z,100741.53
2022-12-05T08:11:25.652Z,100757.56
2022-12-05T08:13:52.957Z,100748.63
2022-12-05T08:16:24.343Z,100756.84
2022-12-05T08:18:55.760Z,100755.00
2022-12-05T08:21:25.355Z,100766.50
2022-12-05T08:23:52.847Z,100771.22
2022-12-05T08:26:30.898Z,100763.53
2022-12-05T08:29:00.995Z,100761.69
2022-12-05T08:31:30.091Z,100761.84
2022-12-05T08:33:59.695Z,100760.72
2022-12-05T08:36:30.418Z,100763.84
2022-12-05T08:39:01.525Z,100767.41
2022-12-05T08:41:30.036Z,100766.84
2022-12-05T08:43:58.122Z,100779.75
2022-12-05T08:46:24.701Z,100774.66
2022-12-05T08:48:51.680Z,100774.38
2022-12-05T08:51:18.194Z,100786.03
2022-12-05T08:53:45.048Z,100776.91
2022-12-05T08:56:12.427Z,100774.09
2022-12-05T08:58:41.296Z,100775.94
2022-12-05T09:01:13.310Z,100781.19
2022-12-05T09:03:46.029Z,100783.91
2022-12-05T09:06:22.748Z,100792.69
2022-12-05T09:08:53.361Z,100790.84
2022-12-05T09:11:25.678Z,100801.81
2022-12-05T09:13:54.636Z,100801.81
2022-12-05T09:16:24.204Z,100799.09
2022-12-05T09:18:51.692Z,100800.78
2022-12-05T09:21:22.759Z,100804.50
2022-12-05T09:23:51.015Z,100817.72
2022-12-05T09:26:22.307Z,100818.41
2022-12-05T09:28:49.096Z,100818.41
2022-12-05T09:31:21.254Z,100815.72
2022-12-05T09:33:49.916Z,100821.84
2022-12-05T09:36:20.134Z,100817.31
2022-12-05T09:38:47.251Z,100820.59
2022-12-05T09:41:51.536Z,100829.09
2022-12-05T09:44:47.727Z,100818.75
2022-12-05T09:47:29.361Z,100827.56
2022-12-05T09:50:23.520Z,100816.50
2022-12-05T09:53:27.945Z,100832.69
2022-12-05T09:56:04.297Z,100815.94
2022-12-05T09:58:55.982Z,100820.19
2022-12-05T10:01:22.455Z,100826.88
2022-12-05T10:04:14.746Z,100820.34
2022-12-05T10:06:41.184Z,100822.75
2022-12-05T10:09:33.951Z,100818.09
2022-12-05T10:12:11.433Z,100821.94
2022-12-05T10:15:04.188Z,100817.38
2022-12-05T10:17:37.651Z,100824.22
2022-12-05T10:20:13.835Z,100818.66
2022-12-05T10:23:18.761Z,100818.94
2022-12-05T10:25:59.697Z,100816.97
2022-12-05T10:28:36.651Z,100813.53
2022-12-05T10:31:09.684Z,100806.16
2022-12-05T10:33:43.360Z,100817.94
2022-12-05T10:36:14.245Z,100825.31
2022-12-05T10:38:43.258Z,100817.66
2022-12-05T10:41:13.282Z,100820.22
2022-12-05T10:43:43.296Z,100823.78
2022-12-05T10:46:17.176Z,100833.59
2022-12-05T10:48:44.234Z,100835.28
2022-12-05T10:51:16.491Z,100834.28
2022-12-05T10:53:50.867Z,100827.47
2022-12-05T10:56:39.901Z,100829.03
2022-12-05T10:59:09.172Z,100827.03
2022-12-05T11:01:40.128Z,100822.63
2022-12-05T11:04:18.131Z,100823.47
2022-12-05T11:07:23.497Z,100822.38
2022-12-05T11:09:54.721Z,100821.34
2022-12-05T11:12:42.756Z,100817.53
2022-12-05T11:15:22.536Z,100814.66
2022-12-05T11:17:50.321Z,100819.94
2022-12-05T11:20:19.784Z,100821.38
2022-12-05T11:22:48.981Z,100822.22
2022-12-05T11:25:35.225Z,100821.78
2022-12-05T11:28:17.231Z,100821.09
2022-12-05T11:31:12.775Z,100821.78
2022-12-05T11:33:39.649Z,100818.09
2022-12-05T11:36:13.544Z,100822.50
2022-12-05T11:38:41.483Z,100815.09
2022-12-05T11:41:41.906Z,100806.97
2022-12-05T11:44:32.124Z,100806.97
2022-12-05T11:47:07.320Z,100808.56
2022-12-05T11:50:07.570Z,100807.41
2022-12-05T11:52:56.263Z,100806.13
2022-12-05T11:55:37.042Z,100811.53
2022-12-05T11:58:15.578Z,100802.16
2022-12-05T12:01:05.263Z,100796.44
2022-12-05T12:04:00.161Z,100800.13
2022-12-05T12:06:41.906Z,100785.50
2022-12-05T12:09:29.865Z,100790.06
2022-12-05T12:12:02.629Z,100797.44
2022-12-05T12:15:00.018Z,100802.41
2022-12-05T12:17:47.443Z,100799.13
2022-12-05T12:21:04.459Z,100799.56
2022-12-05T12:23:43.076Z,100802.13
2022-12-05T12:26:33.245Z,100795.13
2022-12-05T12:29:18.334Z,100798.97
2022-12-05T12:32:16.988Z,100783.53
2022-12-05T12:35:01.531Z,100779.78
2022-12-05T12:37:49.875Z,100777.66
2022-12-05T12:40:35.649Z,100781.06
2022-12-05T12:43:52.154Z,100780.50
2022-12-05T12:46:53.261Z,100782.09
2022-12-05T12:49:56.822Z,100783.06
2022-12-05T12:52:31.321Z,100782.53
2022-12-05T12:55:24.806Z,100782.22
2022-12-05T12:57:51.207Z,100782.38
2022-12-05T13:00:22.538Z,100780.53
2022-12-05T13:03:05.491Z,100786.63
2022-12-05T13:05:39.049Z,100786.38
2022-12-05T13:08:37.693Z,100793.63
2022-12-05T13:11:08.352Z,100797.63
2022-12-05T13:13:40.531Z,100801.06
2022-12-05T13:16:18.572Z,100795.63
2022-12-05T13:18:47.225Z,100803.88
2022-12-05T13:21:14.600Z,100796.50
2022-12-05T13:23:48.139Z,100800.03
2022-12-05T13:26:15.115Z,100799.91
2022-12-05T13:28:58.374Z,100798.91
2022-12-05T13:31:54.345Z,100802.59
2022-12-05T13:34:26.947Z,100798.34
2022-12-05T13:37:18.884Z,100798.19
2022-12-05T13:40:13.215Z,100785.06
2022-12-05T13:42:43.371Z,100795.59
2022-12-05T13:45:15.784Z,100794.34
2022-12-05T13:48:02.390Z,100795.03
2022-12-05T13:50:51.515Z,100797.13
2022-12-05T13:53:43.550Z,100803.41
2022-12-05T13:56:15.369Z,100802.72
2022-12-05T13:58:43.545Z,100806.13
2022-12-05T14:01:25.423Z,100806.88
2022-12-05T14:03:51.935Z,100800.16
2022-12-05T14:06:39.540Z,100803.56
2022-12-05T14:09:17.885Z,100803.00
2022-12-05T14:12:12.481Z,100799.97
2022-12-05T14:14:57.443Z,100805.09
2022-12-05T14:17:32.371Z,100802.38
2022-12-05T14:20:23.512Z,100813.34
2022-12-05T14:23:12.284Z,100815.19
2022-12-05T14:26:02.120Z,100804.53
2022-12-05T14:28:41.114Z,100811.84
2022-12-05T14:31:24.328Z,100815.25
2022-12-05T14:34:25.011Z,100816.69
2022-12-05T14:36:52.997Z,100825.09
2022-12-05T14:39:28.254Z,100822.13
2022-12-05T14:41:59.503Z,100819.25
2022-12-05T14:44:32.285Z,100823.81
2022-12-05T14:47:05.673Z,100830.09
2022-12-05T14:50:04.479Z,100825.84
2022-12-05T14:52:34.422Z,100826.13
2022-12-05T14:55:05.985Z,100829.69
2022-12-05T14:57:41.064Z,100836.78
2022-12-05T15:00:08.410Z,100829.69
2022-12-05T15:02:43.457Z,100838.63
2022-12-05T15:05:31.949Z,100839.66
2022-12-05T15:08:00.066Z,100834.38
2022-12-05T15:10:33.275Z,100837.09
2022-12-05T15:13:08.095Z,100838.94
2022-12-05T15:15:41.625Z,100832.53
2022-12-05T15:18:27.410Z,100836.53
2022-12-05T15:21:15.302Z,100839.09
2022-12-05T15:23:44.871Z,100842.22
2022-12-05T15:26:45.431Z,100847.63
2022-12-05T15:29:17.258Z,100847.94
2022-12-05T15:31:47.054Z,100851.06
2022-12-05T15:34:32.039Z,100851.50
2022-12-05T15:37:37.544Z,100851.78
2022-12-05T15:40:10.573Z,100857.63
2022-12-05T15:42:40.924Z,100849.94
2022-12-05T15:45:16.066Z,100844.13
2022-12-05T15:47:57.598Z,100848.09
2022-12-05T15:50:30.636Z,100852.94
2022-12-05T15:53:25.103Z,100847.97
2022-12-05T15:55:56.005Z,100853.78
2022-12-05T15:58:31.526Z,100858.63
2022-12-05T16:01:16.441Z,100854.66
2022-12-05T16:04:17.367Z,100853.06
2022-12-05T16:06:53.687Z,100846.53
2022-12-05T16:09:29.323Z,100852.34
2022-12-05T16:11:57.626Z,100859.19
2022-12-05T16:14:58.392Z,100854.06
2022-12-05T16:17:19.370Z,100854.19
2022-12-05T16:19:46.588Z,100858.59
2022-12-05T16:22:15.322Z,100846.22
2022-12-05T16:25:17.094Z,100850.63
2022-12-05T16:28:04.094Z,100860.56
2022-12-05T16:30:31.754Z,100864.88
2022-12-05T16:33:13.950Z,100860.28
2022-12-05T16:35:43.352Z,100850.34
2022-12-05T16:38:31.853Z,100850.34
2022-12-05T16:41:15.311Z,100851.06
2022-12-05T16:43:44.591Z,100850.91
2022-12-05T16:46:14.534Z,100848.09
2022-12-05T16:48:41.830Z,100849.94
2022-12-05T16:51:11.269Z,100845.38
2022-12-05T16:53:39.715Z,100850.66
2022-12-05T16:56:07.989Z,100850.50
2022-12-05T16:58:35.735Z,100854.91
2022-12-05T17:01:06.653Z,100855.50
2022-12-05T17:03:35.654Z,100854.63
2022-12-05T17:06:05.332Z,100849.09
2022-12-05T17:08:32.073Z,100856.19
2022-12-05T17:11:03.504Z,100854.50
2022-12-05T17:13:31.902Z,100850.66
2022-12-05T17:16:02.354Z,100860.75
2022-12-05T17:18:32.208Z,100854.34
2022-12-05T17:21:08.363Z,100871.84
2022-12-05T17:23:34.746Z,100860.19
2022-12-05T17:26:03.773Z,100860.06
2022-12-05T17:28:30.455Z,100860.06
2022-12-05T17:30:57.442Z,100860.06
2022-12-05T17:33:25.313Z,100866.16
2022-12-05T17:35:52.262Z,100870.41
2022-12-05T17:38:21.972Z,100865.75
2022-12-05T17:40:48.765Z,100866.16
2022-12-05T17:43:23.092Z,100865.19
2022-12-05T17:45:54.887Z,100860.06
2022-12-05T17:48:23.744Z,100864.59
2022-12-05T17:50:50.421Z,100867.72
2022-12-05T17:53:18.891Z,100872.56
2022-12-05T17:55:48.530Z,100870.28
2022-12-05T17:58:18.045Z,100862.44
2022-12-05T18:00:45.766Z,100868.88
2022-12-05T18:03:17.947Z,100875.97
2022-12-05T18:05:45.587Z,100876.97
2022-12-05T18:08:12.595Z,100872.84
2022-12-05T18:10:47.112Z,100876.53
2022-12-05T18:13:14.880Z,100877.50
2022-12-05T18:15:43.310Z,100877.81
2022-12-05T18:18:17.956Z,100879.66
2022-12-05T18:20:44.704Z,100885.22
2022-12-05T18:23:11.147Z,100889.88
2022-12-05T18:25:37.789Z,100881.06
2022-12-05T18:28:04.434Z,100884.75
2022-12-05T18:30:30.980Z,100882.75
2022-12-05T18:33:00.331Z,100879.34
2022-12-05T18:35:42.774Z,100878.38
2022-12-05T18:38:12.854Z,100875.38
2022-12-05T18:40:39.313Z,100871.09
2022-12-05T18:43:08.325Z,100874.94
2022-12-05T18:45:34.813Z,100878.78
2022-12-05T18:48:22.959Z,100888.72
2022-12-05T18:50:48.164Z,100895.00
2022-12-05T18:53:17.418Z,100893.41
2022-12-05T18:56:05.419Z,100893.16
2022-12-05T18:58:30.668Z,100887.88
2022-12-05T19:01:09.260Z,100887.47
2022-12-05T19:03:39.871Z,100889.59
2022-12-05T19:06:18.011Z,100888.72
2022-12-05T19:08:44.868Z,100894.59
2022-12-05T19:11:16.691Z,100888.72
2022-12-05T19:13:43.685Z,100894.13
2022-12-05T19:16:20.472Z,100896.97
2022-12-05T19:18:47.250Z,100889.28
2022-12-05T19:21:13.993Z,100887.84
2022-12-05T19:23:40.452Z,100883.44
2022-12-05T19:26:10.751Z,100888.97
2022-12-05T19:28:37.898Z,100887.53
2022-12-05T19:31:07.418Z,100884.00
2022-12-05T19:33:36.156Z,100888.41
2022-12-05T19:36:08.212Z,100889.41
2022-12-05T19:38:35.109Z,100896.91
2022-12-05T19:41:04.667Z,100888.94
2022-12-05T19:43:35.462Z,100896.31
2022-12-05T19:46:11.765Z,100894.34
2022-12-05T19:48:38.432Z,100900.91
2022-12-05T19:51:07.629Z,100893.50
2022-12-05T19:53:38.505Z,100888.94
2022-12-05T19:56:25.073Z,100891.94
2022-12-05T19:58:53.650Z,100896.59
2022-12-05T20:01:27.081Z,100898.59
2022-12-05T20:03:59.697Z,100899.47
2022-12-05T20:06:31.045Z,100896.03
2022-12-05T20:09:01.411Z,100891.75
2022-12-05T20:11:29.151Z,100899.97
2022-12-05T20:14:00.628Z,100897.28
2022-12-05T20:16:30.748Z,100897.88
2022-12-05T20:18:59.247Z,100888.31
2022-12-05T20:21:28.157Z,100895.91
2022-12-05T20:23:55.153Z,100888.06
2022-12-05T20:26:28.454Z,100890.63
2022-12-05T20:28:58.902Z,100896.19
2022-12-05T20:31:32.046Z,100906.97
2022-12-05T20:33:58.581Z,100902.28
2022-12-05T20:36:30.239Z,100901.41
2022-12-05T20:39:10.263Z,100899.59
2022-12-05T20:41:36.885Z,100896.19
2022-12-05T20:44:05.598Z,100903.13
2022-12-05T20:46:32.633Z,100903.00
2022-12-05T20:48:59.883Z,100912.09
2022-12-05T20:51:28.761Z,100908.53
2022-12-05T20:53:56.666Z,100904.00
2022-12-05T20:56:31.782Z,100904.69
2022-12-05T20:59:01.031Z,100908.25
2022-12-05T21:01:29.221Z,100902.84
2022-12-05T21:03:56.523Z,100906.28
2022-12-05T21:06:28.604Z,100909.13
2022-12-05T21:08:55.442Z,100895.75
2022-12-05T21:11:23.619Z,100896.59
2022-12-05T21:13:50.469Z,100895.75
2022-12-05T21:16:21.387Z,100897.63
2022-12-05T21:18:49.207Z,100904.69
2022-12-05T21:21:21.969Z,100895.75
2022-12-05T21:23:56.551Z,100895.91
2022-12-05T21:26:27.204Z,100899.59
2022-12-05T21:28:53.951Z,100903.13
2022-12-05T21:31:21.932Z,100894.19
2022-12-05T21:33:55.070Z,100893.31
2022-12-05T21:36:22.136Z,100893.31
2022-12-05T21:38:54.131Z,100890.91
2022-12-05T21:41:22.538Z,100894.59
2022-12-05T21:43:54.007Z,100892.16
2022-12-05T21:46:21.095Z,100898.69
2022-12-05T21:48:47.735Z,100906.78
2022-12-05T21:51:14.338Z,100910.47
2022-12-05T21:53:43.576Z,100900.81
2022-12-05T21:56:15.611Z,100896.28
2022-12-05T21:58:43.925Z,100899.69
2022-12-05T22:01:17.550Z,100893.56
2022-12-05T22:03:44.271Z,100894.56
2022-12-05T22:06:12.209Z,100891.97
2022-12-05T22:08:39.495Z,100896.69
2022-12-05T22:11:14.849Z,100898.50
2022-12-05T22:13:42.546Z,100903.75
2022-12-05T22:16:09.181Z,100899.50
2022-12-05T22:18:36.347Z,100903.91
2022-12-05T22:21:17.410Z,100902.94
2022-12-05T22:23:44.090Z,100903.06
2022-12-05T22:26:13.176Z,100905.75
2022-12-05T22:28:40.066Z,100902.06
2022-12-05T22:31:10.419Z,100892.13
2022-12-05T22:33:37.795Z,100894.84
2022-12-05T22:36:07.870Z,100889.44
2022-12-05T22:38:36.889Z,100889.44
2022-12-05T22:41:06.749Z,100892.25
2022-12-05T22:43:35.239Z,100893.13
2022-12-05T22:46:06.544Z,100902.19
2022-12-05T22:48:33.556Z,100889.69
2022-12-05T22:51:01.243Z,100896.09
2022-12-05T22:53:28.462Z,100897.94
2022-12-05T22:56:04.473Z,100891.69
2022-12-05T22:58:31.052Z,100889.97
2022-12-05T23:00:57.499Z,100892.66
2022-12-05T23:03:26.515Z,100891.81
2022-12-05T23:05:53.103Z,100880.41
2022-12-05T23:08:22.127Z,100888.13
2022-12-05T23:10:48.563Z,100883.84
2022-12-05T23:13:14.975Z,100879.44
2022-12-05T23:15:41.467Z,100877.59
2022-12-05T23:18:10.523Z,100877.72
2022-12-05T23:20:37.028Z,100874.03
2022-12-05T23:23:03.547Z,100878.59
2022-12-05T23:25:30.003Z,100876.03
2022-12-05T23:27:56.427Z,100867.94
2022-12-05T23:30:22.973Z,100851.88
2022-12-05T23:32:49.464Z,100860.84
2022-12-05T23:35:16.270Z,100858.25
2022-12-05T23:37:48.577Z,100874.44
2022-12-05T23:40:18.609Z,100866.34
2022-12-05T23:42:45.045Z,100869.03
2022-12-05T23:45:11.589Z,100858.25
2022-12-05T23:47:38.027Z,100865.50
2022-12-05T23:50:05.073Z,100858.13
2022-12-05T23:52:31.920Z,100861.69
2022-12-05T23:54:58.511Z,100855.44
2022-12-05T23:57:24.964Z,100866.22
2022-12-05T23:59:51.360Z,100862.78
